sensor_id;sensor_type;location;lat;lon;timestamp;pressure;altitude;pressure_sealevel;temperature;humidity
47218;BME280;47282;53.362;-2.222;2023-02-10T00:01:17;102617.98;;;1.08;65.82
47218;BME280;47282;53.362;-2.222;2023-02-10T00:03:46;102616.08;;;1.48;65.87
47218;BME280;47282;53.362;-2.222;2023-02-10T00:06:16;102614.22;;;1.19;65.92
47218;BME280;47282;53.362;-2.222;2023-02-10T00:08:46;102616.84;;;1.12;66.02
47218;BME280;47282;53.362;-2.222;2023-02-10T00:11:15;102620.28;;;1.08;66.11
47218;BME280;47282;53.362;-2.222;2023-02-10T00:13:43;102622.80;;;1.05;66.16
47218;BME280;47282;53.362;-2.222;2023-02-10T00:16:14;102621.90;;;1.01;66.22
47218;BME280;47282;53.362;-2.222;2023-02-10T00:18:42;102619.88;;;0.98;66.33
47218;BME280;47282;53.362;-2.222;2023-02-10T00:21:13;102624.23;;;0.97;66.44
47218;BME280;47282;53.362;-2.222;2023-02-10T00:23:43;102616.74;;;1.19;66.50
47218;BME280;47282;53.362;-2.222;2023-02-10T00:26:12;102617.88;;;0.96;66.57
47218;BME280;47282;53.362;-2.222;2023-02-10T00:28:41;102615.90;;;0.95;66.61
47218;BME280;47282;53.362;-2.222;2023-02-10T00:31:10;102618.93;;;1.16;66.66
47218;BME280;47282;53.362;-2.222;2023-02-10T00:33:39;102622.11;;;0.93;66.73
47218;BME280;47282;53.362;-2.222;2023-02-10T00:36:09;102620.91;;;1.17;66.88
47218;BME280;47282;53.362;-2.222;2023-02-10T00:38:38;102617.77;;;1.00;67.03
47218;BME280;47282;53.362;-2.222;2023-02-10T00:41:09;102609.40;;;1.30;67.16
47218;BME280;47282;53.362;-2.222;2023-02-10T00:43:37;102605.94;;;1.42;67.18
47218;BME280;47282;53.362;-2.222;2023-02-10T00:46:06;102602.03;;;1.11;67.16
47218;BME280;47282;53.362;-2.222;2023-02-10T00:48:34;102604.34;;;1.21;67.15
47218;BME280;47282;53.362;-2.222;2023-02-10T00:51:03;102606.49;;;1.32;67.17
47218;BME280;47282;53.362;-2.222;2023-02-10T00:53:32;102606.07;;;1.44;67.11
47218;BME280;47282;53.362;-2.222;2023-02-10T00:56:00;102608.83;;;1.54;67.12
47218;BME280;47282;53.362;-2.222;2023-02-10T00:58:28;102609.98;;;1.63;67.07
47218;BME280;47282;53.362;-2.222;2023-02-10T01:00:57;102612.87;;;1.70;67.04
47218;BME280;47282;53.362;-2.222;2023-02-10T01:03:25;102609.35;;;1.77;67.03
47218;BME280;47282;53.362;-2.222;2023-02-10T01:05:53;102607.04;;;1.56;67.02
47218;BME280;47282;53.362;-2.222;2023-02-10T01:08:21;102605.55;;;1.86;67.04
47218;BME280;47282;53.362;-2.222;2023-02-10T01:10:49;102607.35;;;1.89;67.02
47218;BME280;47282;53.362;-2.222;2023-02-10T01:13:24;102623.01;;;1.93;67.04
47218;BME280;47282;53.362;-2.222;2023-02-10T01:15:52;102617.22;;;1.48;67.04
47218;BME280;47282;53.362;-2.222;2023-02-10T01:18:21;102623.12;;;1.72;67.05
47218;BME280;47282;53.362;-2.222;2023-02-10T01:20:49;102615.90;;;2.25;66.96
47218;BME280;47282;53.362;-2.222;2023-02-10T01:23:17;102611.44;;;2.03;66.93
47218;BME280;47282;53.362;-2.222;2023-02-10T01:25:45;102603.55;;;2.01;66.91
47218;BME280;47282;53.362;-2.222;2023-02-10T01:28:13;102600.90;;;1.99;66.86
47218;BME280;47282;53.362;-2.222;2023-02-10T01:30:41;102603.16;;;1.92;66.88
47218;BME280;47282;53.362;-2.222;2023-02-10T01:33:09;102620.73;;;1.58;66.98
47218;BME280;47282;53.362;-2.222;2023-02-10T01:35:37;102617.02;;;1.81;67.07
47218;BME280;47282;53.362;-2.222;2023-02-10T01:38:05;102636.87;;;1.51;67.09
47218;BME280;47282;53.362;-2.222;2023-02-10T01:40:34;102644.82;;;1.77;67.16
47218;BME280;47282;53.362;-2.222;2023-02-10T01:43:04;102644.30;;;1.80;67.16
47218;BME280;47282;53.362;-2.222;2023-02-10T01:45:38;102642.75;;;1.82;67.20
47218;BME280;47282;53.362;-2.222;2023-02-10T01:48:08;102631.11;;;1.83;67.16
47218;BME280;47282;53.362;-2.222;2023-02-10T01:50:40;102631.21;;;1.82;67.10
47218;BME280;47282;53.362;-2.222;2023-02-10T01:53:10;102628.27;;;1.77;67.09
47218;BME280;47282;53.362;-2.222;2023-02-10T01:55:42;102628.50;;;1.73;67.10
47218;BME280;47282;53.362;-2.222;2023-02-10T01:58:15;102623.30;;;1.69;67.17
47218;BME280;47282;53.362;-2.222;2023-02-10T02:00:45;102612.48;;;1.89;67.15
47218;BME280;47282;53.362;-2.222;2023-02-10T02:03:14;102605.33;;;1.64;67.15
47218;BME280;47282;53.362;-2.222;2023-02-10T02:05:43;102610.08;;;1.59;67.17
47218;BME280;47282;53.362;-2.222;2023-02-10T02:08:16;102606.63;;;1.55;67.30
47218;BME280;47282;53.362;-2.222;2023-02-10T02:10:55;102601.63;;;1.53;67.31
47218;BME280;47282;53.362;-2.222;2023-02-10T02:13:33;102602.45;;;1.52;67.33
47218;BME280;47282;53.362;-2.222;2023-02-10T02:16:09;102590.62;;;1.50;67.35
47218;BME280;47282;53.362;-2.222;2023-02-10T02:18:47;102584.21;;;1.70;67.34
47218;BME280;47282;53.362;-2.222;2023-02-10T02:21:36;102581.77;;;1.67;67.30
47218;BME280;47282;53.362;-2.222;2023-02-10T02:24:22;102578.68;;;1.63;67.28
47218;BME280;47282;53.362;-2.222;2023-02-10T02:27:09;102575.00;;;1.35;67.41
47218;BME280;47282;53.362;-2.222;2023-02-10T02:30:00;102570.72;;;1.56;67.47
47218;BME280;47282;53.362;-2.222;2023-02-10T02:32:33;102559.92;;;1.33;67.49
47218;BME280;47282;53.362;-2.222;2023-02-10T02:35:09;102560.72;;;1.32;67.56
47218;BME280;47282;53.362;-2.222;2023-02-10T02:37:39;102561.20;;;1.77;67.60
47218;BME280;47282;53.362;-2.222;2023-02-10T02:40:10;102567.36;;;1.33;67.69
47218;BME280;47282;53.362;-2.222;2023-02-10T02:42:39;102564.06;;;1.58;67.74
47218;BME280;47282;53.362;-2.222;2023-02-10T02:45:10;102557.89;;;1.60;67.81
47218;BME280;47282;53.362;-2.222;2023-02-10T02:47:48;102552.84;;;1.64;67.77
47218;BME280;47282;53.362;-2.222;2023-02-10T02:50:25;102551.59;;;1.67;67.79
47218;BME280;47282;53.362;-2.222;2023-02-10T02:53:04;102555.09;;;1.49;67.77
47218;BME280;47282;53.362;-2.222;2023-02-10T02:55:44;102559.41;;;1.53;67.84
47218;BME280;47282;53.362;-2.222;2023-02-10T02:58:21;102560.04;;;1.58;67.88
47218;BME280;47282;53.362;-2.222;2023-02-10T03:00:52;102554.41;;;1.63;67.89
47218;BME280;47282;53.362;-2.222;2023-02-10T03:03:22;102549.67;;;1.68;67.89
47218;BME280;47282;53.362;-2.222;2023-02-10T03:05:50;102554.17;;;1.71;67.91
47218;BME280;47282;53.362;-2.222;2023-02-10T03:08:18;102549.24;;;1.48;67.93
47218;BME280;47282;53.362;-2.222;2023-02-10T03:10:46;102547.62;;;1.79;67.96
47218;BME280;47282;53.362;-2.222;2023-02-10T03:13:14;102546.29;;;1.83;67.95
47218;BME280;47282;53.362;-2.222;2023-02-10T03:15:42;102542.01;;;1.85;67.96
47218;BME280;47282;53.362;-2.222;2023-02-10T03:18:10;102540.79;;;1.89;67.91
47218;BME280;47282;53.362;-2.222;2023-02-10T03:20:39;102543.92;;;1.88;67.88
47218;BME280;47282;53.362;-2.222;2023-02-10T03:23:07;102548.90;;;1.85;67.83
47218;BME280;47282;53.362;-2.222;2023-02-10T03:25:35;102553.85;;;1.79;67.86
47218;BME280;47282;53.362;-2.222;2023-02-10T03:28:04;102553.61;;;1.47;67.85
47218;BME280;47282;53.362;-2.222;2023-02-10T03:30:32;102548.81;;;1.67;67.87
47218;BME280;47282;53.362;-2.222;2023-02-10T03:33:00;102547.08;;;1.79;67.91
47218;BME280;47282;53.362;-2.222;2023-02-10T03:35:28;102540.60;;;1.69;67.93
47218;BME280;47282;53.362;-2.222;2023-02-10T03:37:57;102531.45;;;1.59;67.99
47218;BME280;47282;53.362;-2.222;2023-02-10T03:40:25;102535.58;;;1.28;68.06
47218;BME280;47282;53.362;-2.222;2023-02-10T03:42:53;102534.65;;;1.20;68.12
47218;BME280;47282;53.362;-2.222;2023-02-10T03:45:21;102534.69;;;1.13;68.15
47218;BME280;47282;53.362;-2.222;2023-02-10T03:47:49;102526.21;;;1.29;68.21
47218;BME280;47282;53.362;-2.222;2023-02-10T03:50:17;102526.46;;;1.24;68.25
47218;BME280;47282;53.362;-2.222;2023-02-10T03:52:45;102527.89;;;1.40;68.28
47218;BME280;47282;53.362;-2.222;2023-02-10T03:55:13;102530.03;;;0.91;68.31
47218;BME280;47282;53.362;-2.222;2023-02-10T03:57:41;102531.65;;;1.08;68.36
47218;BME280;47282;53.362;-2.222;2023-02-10T04:00:11;102527.01;;;1.26;68.40
47218;BME280;47282;53.362;-2.222;2023-02-10T04:02:39;102525.15;;;1.21;68.41
47218;BME280;47282;53.362;-2.222;2023-02-10T04:05:07;102531.07;;;0.93;68.47
47218;BME280;47282;53.362;-2.222;2023-02-10T04:07:35;102518.05;;;0.86;68.51
47218;BME280;47282;53.362;-2.222;2023-02-10T04:10:05;102512.49;;;0.81;68.52
47218;BME280;47282;53.362;-2.222;2023-02-10T04:12:33;102504.58;;;0.94;68.57
47218;BME280;47282;53.362;-2.222;2023-02-10T04:15:01;102511.79;;;0.64;68.61
47218;BME280;47282;53.362;-2.222;2023-02-10T04:17:29;102508.87;;;0.56;68.63
47218;BME280;47282;53.362;-2.222;2023-02-10T04:19:57;102517.55;;;0.71;68.68
47218;BME280;47282;53.362;-2.222;2023-02-10T04:22:25;102517.29;;;0.64;68.74
47218;BME280;47282;53.362;-2.222;2023-02-10T04:24:53;102522.47;;;0.59;68.78
47218;BME280;47282;53.362;-2.222;2023-02-10T04:27:21;102522.93;;;0.54;68.82
47218;BME280;47282;53.362;-2.222;2023-02-10T04:29:49;102528.94;;;0.49;68.83
47218;BME280;47282;53.362;-2.222;2023-02-10T04:32:17;102528.53;;;0.41;68.87
47218;BME280;47282;53.362;-2.222;2023-02-10T04:34:45;102528.93;;;0.36;68.92
47218;BME280;47282;53.362;-2.222;2023-02-10T04:37:13;102521.60;;;0.30;68.93
47218;BME280;47282;53.362;-2.222;2023-02-10T04:39:41;102508.64;;;0.24;69.00
47218;BME280;47282;53.362;-2.222;2023-02-10T04:42:09;102505.66;;;0.19;69.05
47218;BME280;47282;53.362;-2.222;2023-02-10T04:44:37;102500.90;;;0.14;69.08
47218;BME280;47282;53.362;-2.222;2023-02-10T04:47:05;102505.92;;;0.09;69.12
47218;BME280;47282;53.362;-2.222;2023-02-10T04:49:33;102509.00;;;0.05;69.17
47218;BME280;47282;53.362;-2.222;2023-02-10T04:52:01;102507.45;;;0.01;69.20
47218;BME280;47282;53.362;-2.222;2023-02-10T04:54:29;102505.16;;;0.24;69.27
47218;BME280;47282;53.362;-2.222;2023-02-10T04:56:57;102499.37;;;-0.06;69.34
47218;BME280;47282;53.362;-2.222;2023-02-10T04:59:25;102498.23;;;0.17;69.40
47218;BME280;47282;53.362;-2.222;2023-02-10T05:01:53;102499.65;;;-0.11;69.47
47218;BME280;47282;53.362;-2.222;2023-02-10T05:04:21;102495.54;;;-0.13;69.48
47218;BME280;47282;53.362;-2.222;2023-02-10T05:06:49;102491.05;;;-0.15;69.56
47218;BME280;47282;53.362;-2.222;2023-02-10T05:09:17;102487.41;;;-0.15;69.61
47218;BME280;47282;53.362;-2.222;2023-02-10T05:11:45;102494.30;;;-0.16;69.67
47218;BME280;47282;53.362;-2.222;2023-02-10T05:14:13;102489.71;;;-0.16;69.74
47218;BME280;47282;53.362;-2.222;2023-02-10T05:16:41;102486.92;;;0.11;69.81
47218;BME280;47282;53.362;-2.222;2023-02-10T05:19:09;102477.83;;;-0.15;69.90
47218;BME280;47282;53.362;-2.222;2023-02-10T05:21:37;102472.21;;;0.13;69.99
47218;BME280;47282;53.362;-2.222;2023-02-10T05:24:05;102465.86;;;-0.12;70.01
47218;BME280;47282;53.362;-2.222;2023-02-10T05:26:33;102461.36;;;-0.10;70.04
47218;BME280;47282;53.362;-2.222;2023-02-10T05:29:01;102466.88;;;-0.07;70.05
47218;BME280;47282;53.362;-2.222;2023-02-10T05:31:29;102460.80;;;-0.05;70.11
47218;BME280;47282;53.362;-2.222;2023-02-10T05:33:57;102460.35;;;-0.03;70.12
47218;BME280;47282;53.362;-2.222;2023-02-10T05:36:25;102451.14;;;0.00;70.11
47218;BME280;47282;53.362;-2.222;2023-02-10T05:38:53;102464.46;;;0.52;70.16
47218;BME280;47282;53.362;-2.222;2023-02-10T05:41:21;102457.65;;;0.06;70.21
47218;BME280;47282;53.362;-2.222;2023-02-10T05:43:49;102465.36;;;0.10;70.24
47218;BME280;47282;53.362;-2.222;2023-02-10T05:46:17;102470.27;;;0.39;70.28
47218;BME280;47282;53.362;-2.222;2023-02-10T05:48:45;102471.55;;;0.41;70.32
47218;BME280;47282;53.362;-2.222;2023-02-10T05:51:13;102467.18;;;0.18;70.36
47218;BME280;47282;53.362;-2.222;2023-02-10T05:53:41;102456.99;;;0.20;70.38
47218;BME280;47282;53.362;-2.222;2023-02-10T05:56:09;102457.90;;;0.48;70.42
47218;BME280;47282;53.362;-2.222;2023-02-10T05:58:37;102456.62;;;0.24;70.41
47218;BME280;47282;53.362;-2.222;2023-02-10T06:01:17;102451.07;;;0.27;70.43
47218;BME280;47282;53.362;-2.222;2023-02-10T06:03:45;102454.40;;;0.29;70.42
47218;BME280;47282;53.362;-2.222;2023-02-10T06:06:13;102470.98;;;0.30;70.45
47218;BME280;47282;53.362;-2.222;2023-02-10T06:08:41;102479.68;;;0.30;70.50
47218;BME280;47282;53.362;-2.222;2023-02-10T06:11:10;102480.72;;;0.30;70.51
47218;BME280;47282;53.362;-2.222;2023-02-10T06:13:38;102483.90;;;0.31;70.54
47218;BME280;47282;53.362;-2.222;2023-02-10T06:16:06;102487.64;;;0.33;70.56
47218;BME280;47282;53.362;-2.222;2023-02-10T06:18:34;102487.91;;;0.33;70.56
47218;BME280;47282;53.362;-2.222;2023-02-10T06:21:03;102481.03;;;0.33;70.57
47218;BME280;47282;53.362;-2.222;2023-02-10T06:23:31;102484.14;;;0.33;70.58
47218;BME280;47282;53.362;-2.222;2023-02-10T06:25:59;102480.12;;;0.59;70.62
47218;BME280;47282;53.362;-2.222;2023-02-10T06:28:27;102471.96;;;0.10;70.63
47218;BME280;47282;53.362;-2.222;2023-02-10T06:30:55;102482.55;;;0.35;70.61
47218;BME280;47282;53.362;-2.222;2023-02-10T06:33:24;102480.02;;;0.34;70.66
47218;BME280;47282;53.362;-2.222;2023-02-10T06:35:52;102472.58;;;0.34;70.70
47218;BME280;47282;53.362;-2.222;2023-02-10T06:38:20;102464.67;;;0.63;70.75
47218;BME280;47282;53.362;-2.222;2023-02-10T06:40:48;102458.68;;;0.39;70.77
47218;BME280;47282;53.362;-2.222;2023-02-10T06:43:16;102463.85;;;0.42;70.84
47218;BME280;47282;53.362;-2.222;2023-02-10T06:45:44;102466.31;;;0.74;70.84
47218;BME280;47282;53.362;-2.222;2023-02-10T06:48:11;102464.36;;;0.52;70.79
47218;BME280;47282;53.362;-2.222;2023-02-10T06:50:39;102474.09;;;0.55;70.80
47218;BME280;47282;53.362;-2.222;2023-02-10T06:53:07;102468.16;;;0.59;70.83
47218;BME280;47282;53.362;-2.222;2023-02-10T06:55:35;102468.65;;;0.64;70.86
47218;BME280;47282;53.362;-2.222;2023-02-10T06:58:04;102467.67;;;0.69;70.86
47218;BME280;47282;53.362;-2.222;2023-02-10T07:01:17;102471.34;;;0.75;70.83
47218;BME280;47282;53.362;-2.222;2023-02-10T07:03:45;102485.07;;;0.84;70.81
47218;BME280;47282;53.362;-2.222;2023-02-10T07:06:13;102492.08;;;0.67;70.83
47218;BME280;47282;53.362;-2.222;2023-02-10T07:08:41;102488.86;;;0.73;70.81
47218;BME280;47282;53.362;-2.222;2023-02-10T07:11:09;102485.00;;;0.81;70.82
